Archival Weather

NSFA McMurdo Sound

NSFA McMurdo Sound, Antarctica (NZCM)

Report from: Friday, September 23, 2022 10:52 AM UTC
Current time: Sunday, December 4, 2022 11:49 AM UTC

Current weather
Weather history
Weather forecast

Present weatherHaze
Temperature-21.9°C (-7.4°F)
Wind chill-35.9°C (-32.6°F)
Dew point-26.1°C (-15.0°F)
Winds 19 kts (9.8 m/s, 21.9 mph) East-Northeast (60°)
Wind gusts 26 kts (13.4 m/s, 29.9 mph)
Peak wind 33 kts (17 m/s, 38 mph) East-Northeast (60°) at 05:14
Visibility2.6 mi. (4.2 km)
Clouds Ceiling: Overcast 1,400 ft. (427 m)
Altimeter28.64 in.Hg (970 mB)
Precip. events Snow began 10:51 AM
Snow ended 10:52 AM
Relative humidity69 %
Density altitude-3,194 ft. (-973 m)
Sea-level pressure107.0 kPa (1070 mB, 31.61 in.Hg)
Remarks Fully automated report
System requires maintenance
Special weather observation
Automated weather observing station with precipitation discriminator
Flight conditions Instrument Meteorological Conditions
Raw dataSPECI NZCM 231052Z AUTO 06019G26KT 4200 HZ OVC014 M22/M26 A2864 RMK AO2 PK WND 06033/1014 SNB1051E1052 SLP704 T12191261 $
An error has occurred. This application may no longer respond until reloaded. Reload 🗙